Time;durP1;ratioP1;P1;durP2;ratioP2;P2;SDS_P1;SDS_P2;PMS_P1;PMS_P2;Temp;Humidity;BMP_temperature;BMP_pressure;BME280_temperature;BME280_humidity;BME280_pressure;Samples;Min_cycle;Max_cycle;Signal;HPM_P1;HPM_P2
2021/12/26 00:01:41;;;;;;;6.15;3.70;;;;;;;-9.41;100.00;99703.91;5037376;28;20083;-85
2021/12/26 00:04:18;;;;;;;;;;;;;;;-9.46;100.00;99708.00;5038112;28;20454;-85
2021/12/26 00:06:44;;;;;;;7.15;2.72;;;;;;;-9.44;100.00;99698.59;5037186;28;19940;-85
2021/12/26 00:09:12;;;;;;;4.97;2.35;;;;;;;-9.43;100.00;99710.72;5037084;28;20017;-84
2021/12/26 00:11:38;;;;;;;5.85;2.78;;;;;;;-9.51;100.00;99706.91;5037112;28;20470;-85
2021/12/26 00:14:05;;;;;;;5.65;2.63;;;;;;;-9.47;100.00;99703.63;5037225;28;20030;-85
2021/12/26 00:16:33;;;;;;;6.35;2.85;;;;;;;-9.50;100.00;99699.22;5037897;28;20025;-85
2021/12/26 00:19:02;;;;;;;6.50;2.65;;;;;;;-9.58;100.00;99696.31;5037880;28;20081;-85
2021/12/26 00:21:28;;;;;;;6.43;2.80;;;;;;;-9.53;100.00;99684.47;5037483;28;20025;-85
2021/12/26 00:23:59;;;;;;;10.68;2.83;;;;;;;-9.51;100.00;99694.00;5039176;28;20087;-84
2021/12/26 00:26:33;;;;;;;6.00;2.78;;;;;;;-9.56;100.00;99696.38;5036455;28;20082;-85
2021/12/26 00:29:02;;;;;;;4.93;2.42;;;;;;;-9.51;100.00;99701.75;5036331;28;20017;-85
2021/12/26 00:31:28;;;;;;;5.55;2.72;;;;;;;-9.58;100.00;99706.66;5036356;28;20030;-85
2021/12/26 00:33:59;;;;;;;6.75;2.60;;;;;;;-9.62;100.00;99709.03;5035829;28;20547;-85
2021/12/26 00:36:25;;;;;;;5.45;2.83;;;;;;;-9.60;100.00;99703.13;5037911;28;20030;-85
2021/12/26 00:38:50;;;;;;;5.20;2.72;;;;;;;-9.61;100.00;99703.06;5037297;28;20060;-85
2021/12/26 00:41:16;;;;;;;4.50;2.10;;;;;;;-9.59;100.00;99702.31;5036958;28;20029;-85
2021/12/26 00:43:42;;;;;;;4.97;2.08;;;;;;;-9.55;100.00;99708.47;5036966;28;20029;-85
2021/12/26 00:46:07;;;;;;;5.35;2.13;;;;;;;-9.64;100.00;99696.06;5081908;23;21050;-81
2021/12/26 00:48:33;;;;;;;3.67;2.03;;;;;;;-9.64;100.00;99688.31;5040562;28;20028;-81
2021/12/26 00:50:58;;;;;;;4.47;2.15;;;;;;;-9.65;100.00;99676.19;5040796;28;20029;-81
2021/12/26 00:53:24;;;;;;;7.03;2.13;;;;;;;-9.66;100.00;99682.16;5041304;28;20121;-81
2021/12/26 00:55:50;;;;;;;7.55;2.70;;;;;;;-9.70;100.00;99673.41;5043224;28;20112;-82
2021/12/26 00:58:16;;;;;;;6.05;2.50;;;;;;;-9.64;100.00;99675.38;5044051;28;20073;-82
2021/12/26 01:00:45;;;;;;;5.85;2.65;;;;;;;-9.73;100.00;99664.63;5045768;28;20398;-82
2021/12/26 01:03:12;;;;;;;4.65;2.35;;;;;;;-9.64;100.00;99659.88;5045581;28;20504;-81
2021/12/26 01:05:41;;;;;;;6.40;2.47;;;;;;;-9.66;100.00;99666.66;5044344;28;20049;-81
2021/12/26 01:08:09;;;;;;;6.43;3.13;;;;;;;-9.68;100.00;99665.72;5045992;28;20343;-82
2021/12/26 01:10:51;;;;;;;7.25;2.92;;;;;;;-9.74;100.00;99665.47;5043848;28;20032;-82
2021/12/26 01:13:25;;;;;;;6.85;2.65;;;;;;;-9.70;100.00;99669.94;5042756;28;20029;-83
2021/12/26 01:15:55;;;;;;;8.00;2.67;;;;;;;-9.70;100.00;99659.59;5036071;28;20055;-81
2021/12/26 01:18:21;;;;;;;6.32;3.25;;;;;;;-9.79;100.00;99657.53;5037552;28;20408;-82
2021/12/26 01:20:56;;;;;;;4.50;2.33;;;;;;;-9.77;100.00;99663.66;5041315;28;20029;-80
2021/12/26 01:23:23;;;;;;;6.40;2.92;;;;;;;-9.74;100.00;99657.72;5038726;28;20021;-81
2021/12/26 01:25:49;;;;;;;5.63;3.03;;;;;;;-9.76;100.00;99660.22;5041196;28;20094;-82
2021/12/26 01:28:17;;;;;;;5.93;2.78;;;;;;;-9.73;100.00;99659.47;5039304;28;20475;-82
2021/12/26 01:30:43;;;;;;;5.75;2.33;;;;;;;-9.79;100.00;99658.41;5039787;28;20028;-82
2021/12/26 01:33:11;;;;;;;6.93;2.83;;;;;;;-9.78;100.00;99673.09;5039943;28;20026;-82
2021/12/26 01:35:38;;;;;;;5.60;2.25;;;;;;;-9.80;100.00;99669.56;5042236;28;20025;-80
2021/12/26 01:38:04;;;;;;;6.60;2.20;;;;;;;-9.79;100.00;99676.47;5040902;28;20022;-81
2021/12/26 01:40:31;;;;;;;6.47;2.55;;;;;;;-9.88;100.00;99679.56;5040987;28;20061;-81
2021/12/26 01:43:01;;;;;;;7.68;2.60;;;;;;;-9.92;100.00;99679.38;5041938;28;20044;-82
2021/12/26 01:45:26;;;;;;;4.05;2.50;;;;;;;-9.99;100.00;99676.53;5043115;28;20032;-82
2021/12/26 01:47:57;;;;;;;6.47;2.70;;;;;;;-9.94;100.00;99675.81;5043751;28;20036;-81
2021/12/26 01:50:22;;;;;;;7.78;2.75;;;;;;;-10.00;100.00;99669.56;5037579;28;20080;-81
2021/12/26 01:52:47;;;;;;;4.78;2.78;;;;;;;-10.00;100.00;99677.31;5034810;28;20398;-81
2021/12/26 01:58:12;;;;;;;8.98;2.80;;;;;;;-10.00;100.00;99666.13;5024715;28;20033;-81
2021/12/26 02:00:39;;;;;;;7.35;2.45;;;;;;;-9.93;100.00;99669.84;5036628;28;20029;-82
2021/12/26 02:03:05;;;;;;;7.38;2.60;;;;;;;-9.95;100.00;99663.75;5037787;28;20033;-81
2021/12/26 02:05:30;;;;;;;9.45;3.63;;;;;;;-9.92;100.00;99658.72;5038665;28;20026;-81
2021/12/26 02:07:55;;;;;;;8.18;2.45;;;;;;;-9.91;100.00;99661.34;5040915;28;20028;-82
2021/12/26 02:10:20;;;;;;;6.35;2.60;;;;;;;-9.91;100.00;99655.28;5039834;28;20072;-82
2021/12/26 02:12:46;;;;;;;6.70;2.92;;;;;;;-9.86;100.00;99651.22;5043207;28;20029;-81
2021/12/26 02:15:11;;;;;;;3.78;1.80;;;;;;;-9.86;100.00;99643.44;5042217;28;20053;-81
2021/12/26 02:17:37;;;;;;;7.25;2.40;;;;;;;-9.84;100.00;99640.97;5040813;28;20378;-81
2021/12/26 02:20:48;;;;;;;7.22;2.65;;;;;;;-9.94;100.00;99644.81;5040392;28;20036;-82
2021/12/26 02:23:20;;;;;;;5.57;2.35;;;;;;;-9.94;100.00;99644.81;5040281;28;20092;-81
2021/12/26 02:28:12;;;;;;;5.40;2.35;;;;;;;-9.89;99.96;99643.31;5035129;28;20022;-81
2021/12/26 02:30:37;;;;;;;13.55;2.65;;;;;;;-9.87;99.15;99641.72;5034872;28;20022;-81
2021/12/26 02:33:04;;;;;;;8.23;2.22;;;;;;;-9.85;99.73;99634.91;5036263;28;20029;-81
2021/12/26 02:35:30;;;;;;;5.15;2.20;;;;;;;-9.86;99.14;99633.13;5036229;28;20125;-81
2021/12/26 02:37:56;;;;;;;3.58;2.15;;;;;;;-9.91;99.67;99635.50;5039093;28;20057;-82
2021/12/26 02:40:22;;;;;;;4.68;2.30;;;;;;;-9.85;99.39;99634.00;5041821;28;20051;-81
2021/12/26 02:42:47;;;;;;;4.32;2.30;;;;;;;-9.80;98.36;99629.91;5040242;28;20112;-80
2021/12/26 02:45:13;;;;;;;4.88;2.00;;;;;;;-9.78;98.71;99631.75;5038936;28;20017;-81
2021/12/26 02:47:45;;;;;;;6.60;2.72;;;;;;;-9.80;98.21;99633.38;5038919;28;20037;-81
2021/12/26 02:50:22;;;;;;;5.03;2.65;;;;;;;-9.79;98.15;99632.56;5040265;28;20053;-82
2021/12/26 02:52:48;;;;;;;5.80;2.47;;;;;;;-9.80;97.76;99623.06;5039997;28;20060;-81
2021/12/26 02:55:15;;;;;;;4.70;2.33;;;;;;;-9.78;97.48;99631.75;5040705;28;20025;-82
2021/12/26 02:57:41;;;;;;;4.28;1.90;;;;;;;-9.77;97.41;99627.47;5041591;28;20437;-82
2021/12/26 03:00:13;;;;;;;4.20;1.98;;;;;;;-9.78;96.96;99630.84;5041223;28;20052;-82
2021/12/26 03:02:42;;;;;;;4.95;2.25;;;;;;;-9.75;96.91;99631.00;5036422;28;20033;-82
2021/12/26 03:05:08;;;;;;;5.13;2.53;;;;;;;-9.79;96.18;99629.97;5036602;28;20097;-81
2021/12/26 03:07:33;;;;;;;5.80;2.15;;;;;;;-9.73;96.69;99624.19;5041574;28;20048;-82
2021/12/26 03:10:00;;;;;;;7.00;2.15;;;;;;;-9.72;96.31;99625.97;5040456;28;20040;-82
2021/12/26 03:12:27;;;;;;;4.80;1.88;;;;;;;-9.73;96.22;99620.72;5046279;28;20033;-82
2021/12/26 03:14:53;;;;;;;5.15;2.15;;;;;;;-9.70;95.38;99616.56;5048100;28;20056;-82
2021/12/26 03:17:20;;;;;;;3.60;2.00;;;;;;;-9.68;94.69;99619.19;5048018;28;20398;-81
2021/12/26 03:19:45;;;;;;;5.05;2.05;;;;;;;-9.66;94.24;99620.13;5050026;28;20048;-81
2021/12/26 03:22:11;;;;;;;3.95;2.35;;;;;;;-9.66;94.36;99612.38;5046851;28;20493;-81
2021/12/26 03:24:38;;;;;;;2.78;1.60;;;;;;;-9.65;93.90;99616.75;5048914;28;20029;-81
2021/12/26 03:27:05;;;;;;;4.72;2.25;;;;;;;-9.61;93.73;99608.28;5046659;28;20025;-81
2021/12/26 03:29:30;;;;;;;3.70;2.03;;;;;;;-9.61;93.63;99610.88;5048809;28;20114;-82
2021/12/26 03:31:56;;;;;;;5.53;2.20;;;;;;;-9.61;92.97;99608.28;5048270;28;20025;-83
2021/12/26 03:34:21;;;;;;;5.63;2.55;;;;;;;-9.59;93.42;99601.50;5048773;28;20083;-82
2021/12/26 03:36:51;;;;;;;5.53;2.28;;;;;;;-9.59;92.86;99601.50;5047256;28;20029;-81
2021/12/26 03:39:16;;;;;;;3.67;2.00;;;;;;;-9.56;92.79;99598.16;5043355;28;20530;-82
2021/12/26 03:41:41;;;;;;;5.85;2.00;;;;;;;-9.54;92.34;99588.75;5040358;28;20174;-81
2021/12/26 03:44:07;;;;;;;3.58;1.65;;;;;;;-9.51;91.24;99593.16;5042349;28;20056;-81
2021/12/26 03:46:32;;;;;;;4.35;1.98;;;;;;;-9.51;91.14;99593.16;5041784;28;20133;-81
2021/12/26 03:49:01;;;;;;;5.20;1.83;;;;;;;-9.53;90.68;99588.81;5042676;28;20451;-82
2021/12/26 03:51:26;;;;;;;3.83;2.03;;;;;;;-9.49;91.30;99594.09;5045412;28;20026;-83
2021/12/26 03:53:51;;;;;;;4.95;1.80;;;;;;;-9.53;91.42;99591.38;5045462;28;20075;-83
2021/12/26 03:56:17;;;;;;;3.17;1.92;;;;;;;-9.51;90.37;99593.16;5045229;28;20021;-83
2021/12/26 03:58:42;;;;;;;6.13;2.15;;;;;;;-9.48;91.58;99588.13;5048537;28;20084;-81
2021/12/26 04:01:08;;;;;;;4.13;2.25;;;;;;;-9.49;90.66;99586.34;5048460;28;20044;-86
2021/12/26 04:03:34;;;;;;;4.22;1.95;;;;;;;-9.50;90.16;99590.63;5048280;28;20026;-83
2021/12/26 04:05:59;;;;;;;4.63;2.35;;;;;;;-9.49;90.25;99591.53;5046981;28;20115;-84
2021/12/26 04:08:25;;;;;;;4.13;1.75;;;;;;;-9.54;90.47;99583.59;5046409;28;20029;-83
2021/12/26 04:10:50;;;;;;;6.60;2.10;;;;;;;-9.50;90.06;99582.88;5047001;28;20032;-83
2021/12/26 04:13:16;;;;;;;4.60;1.73;;;;;;;-9.50;90.30;99590.63;5049764;28;20032;-81
2021/12/26 04:15:41;;;;;;;4.45;2.17;;;;;;;-9.50;89.57;99577.72;5042475;28;20030;-83
2021/12/26 04:18:07;;;;;;;6.18;2.42;;;;;;;-9.48;90.07;99590.72;5041195;28;20048;-82
2021/12/26 04:20:38;;;;;;;4.45;2.38;;;;;;;-9.49;89.34;99594.09;5042324;28;20032;-83
2021/12/26 04:23:06;;;;;;;6.03;2.60;;;;;;;-9.52;90.06;99592.28;5043578;28;20383;-84
2021/12/26 04:25:32;;;;;;;3.88;1.80;;;;;;;-9.55;90.37;99585.28;5045188;28;20028;-83
2021/12/26 04:27:57;;;;;;;4.30;1.75;;;;;;;-9.51;90.56;99583.72;5045001;28;20021;-82
2021/12/26 04:30:26;;;;;;;5.13;1.90;;;;;;;-9.50;91.04;99582.00;5044919;28;20394;-82
2021/12/26 04:32:52;;;;;;;5.32;2.75;;;;;;;-9.53;91.07;99583.63;5045149;28;20474;-82
2021/12/26 04:35:17;;;;;;;4.75;2.10;;;;;;;-9.54;91.63;99586.16;5044706;28;20043;-83
2021/12/26 04:37:44;;;;;;;6.55;2.10;;;;;;;-9.64;92.15;99580.59;5044899;28;20545;-83
2021/12/26 04:40:13;;;;;;;4.55;2.28;;;;;;;-9.59;92.25;99583.41;5043998;28;20040;-83
2021/12/26 04:42:39;;;;;;;5.70;2.10;;;;;;;-9.64;92.58;99584.91;5044488;28;20486;-83
2021/12/26 04:45:08;;;;;;;4.95;1.85;;;;;;;-9.60;91.67;99578.16;5038513;28;20590;-83
2021/12/26 04:47:34;;;;;;;4.45;2.17;;;;;;;-9.58;91.64;99577.41;5035154;28;20385;-84
2021/12/26 04:49:59;;;;;;;4.43;1.83;;;;;;;-9.56;90.77;99582.66;5036413;28;20026;-85
2021/12/26 04:52:25;;;;;;;4.88;2.35;;;;;;;-9.55;90.60;99577.53;5037643;28;20041;-82
2021/12/26 04:54:50;;;;;;;4.57;2.20;;;;;;;-9.51;90.20;99577.66;5035876;28;20516;-83
2021/12/26 04:57:15;;;;;;;8.20;2.40;;;;;;;-9.53;90.87;99575.00;5035315;28;20068;-83
2021/12/26 04:59:41;;;;;;;4.10;2.10;;;;;;;-9.57;91.18;99573.13;5036457;28;20023;-83
2021/12/26 05:02:08;;;;;;;6.80;2.22;;;;;;;-9.56;90.22;99561.97;5036493;28;20029;-83
2021/12/26 05:04:35;;;;;;;5.93;2.15;;;;;;;-9.56;90.99;99564.56;5036609;28;20071;-84
2021/12/26 05:07:00;;;;;;;4.75;2.35;;;;;;;-9.61;91.41;99566.94;5037114;28;20486;-83
2021/12/26 05:09:26;;;;;;;4.40;2.42;;;;;;;-9.61;91.96;99556.59;5036897;28;20062;-81
2021/12/26 05:11:52;;;;;;;4.28;1.92;;;;;;;-9.56;93.81;99555.06;5042255;28;20085;-84
2021/12/26 05:14:18;;;;;;;6.20;2.60;;;;;;;-9.64;93.49;99561.66;5039562;28;20032;-83
2021/12/26 05:16:44;;;;;;;5.20;2.17;;;;;;;-9.69;93.52;99564.03;5035883;28;20025;-82
2021/12/26 05:19:12;;;;;;;4.32;1.90;;;;;;;-9.72;94.60;99569.09;5040438;28;20394;-82
2021/12/26 05:21:37;;;;;;;6.00;2.40;;;;;;;-9.69;94.35;99564.03;5038163;28;20029;-81
2021/12/26 05:24:03;;;;;;;3.53;1.90;;;;;;;-9.73;93.68;99556.09;5036841;28;20060;-82
2021/12/26 05:26:28;;;;;;;3.83;2.00;;;;;;;-9.76;93.16;99552.56;5037387;28;20553;-82
2021/12/26 05:28:54;;;;;;;4.95;2.20;;;;;;;-9.69;92.92;99550.25;5035285;28;20029;-81
2021/12/26 05:31:19;;;;;;;5.05;2.10;;;;;;;-9.67;93.29;99552.06;5036093;28;20450;-82
2021/12/26 05:33:44;;;;;;;4.43;2.00;;;;;;;-9.68;93.35;99546.81;5036967;28;20025;-80
2021/12/26 05:36:09;;;;;;;6.22;2.53;;;;;;;-9.75;94.90;99543.13;5036962;28;20029;-80
2021/12/26 05:38:35;;;;;;;5.28;2.33;;;;;;;-9.78;94.27;99532.66;5036620;28;20451;-80
2021/12/26 05:41:00;;;;;;;4.88;2.33;;;;;;;-9.77;94.53;99529.28;5036907;28;20030;-81
2021/12/26 05:43:25;;;;;;;8.63;2.63;;;;;;;-9.78;94.55;99528.38;5037149;28;20048;-81
2021/12/26 05:45:51;;;;;;;4.53;2.00;;;;;;;-9.74;94.52;99533.69;5044752;28;20025;-82
2021/12/26 05:48:16;;;;;;;5.45;2.30;;;;;;;-9.80;94.67;99534.31;5036690;28;20348;-81
2021/12/26 05:50:41;;;;;;;9.05;2.35;;;;;;;-9.77;94.53;99527.56;5038113;28;20025;-82
2021/12/26 05:53:09;;;;;;;5.75;2.25;;;;;;;-9.78;94.16;99528.38;5037315;28;20049;-82
2021/12/26 05:55:34;;;;;;;4.60;2.00;;;;;;;-9.73;94.74;99525.09;5038816;28;20021;-80
2021/12/26 05:57:59;;;;;;;4.07;1.80;;;;;;;-9.72;94.16;99529.44;5037185;28;20394;-80
2021/12/26 06:00:25;;;;;;;5.22;2.05;;;;;;;-9.72;94.18;99524.28;5038151;28;20052;-81
2021/12/26 06:02:52;;;;;;;4.72;2.17;;;;;;;-9.71;93.60;99526.06;5037381;28;20083;-82
2021/12/26 06:05:19;;;;;;;3.83;1.90;;;;;;;-9.67;93.92;99520.19;5036966;28;20491;-82
2021/12/26 06:07:44;;;;;;;6.43;2.25;;;;;;;-9.70;93.44;99520.03;5036034;28;20040;-82
2021/12/26 06:10:09;;;;;;;4.32;1.98;;;;;;;-9.69;93.91;99524.41;5036799;28;20478;-79
2021/12/26 06:12:35;;;;;;;6.43;2.22;;;;;;;-9.67;94.86;99522.75;5047275;28;20465;-81
2021/12/26 06:15:00;;;;;;;7.65;2.13;;;;;;;-9.67;94.11;99525.34;5037282;28;20116;-80
2021/12/26 06:17:26;;;;;;;4.97;2.38;;;;;;;-9.66;93.97;99527.09;5036768;28;20026;-82
2021/12/26 06:19:51;;;;;;;4.97;2.05;;;;;;;-9.62;93.46;99533.28;5037932;28;20061;-81
2021/12/26 06:22:16;;;;;;;7.35;2.75;;;;;;;-9.61;93.59;99535.91;5037846;28;20454;-81
2021/12/26 06:24:42;;;;;;;5.38;2.42;;;;;;;-9.63;93.09;99532.38;5037547;28;20117;-81
2021/12/26 06:27:08;;;;;;;2.85;1.73;;;;;;;-9.58;94.45;99536.03;5037609;28;20097;-82
2021/12/26 06:29:33;;;;;;;4.57;2.20;;;;;;;-9.62;92.83;99531.59;5039263;28;20075;-83
2021/12/26 06:31:58;;;;;;;4.57;2.28;;;;;;;-9.60;94.04;99522.19;5036802;28;20037;-81
2021/12/26 06:34:23;;;;;;;6.60;2.08;;;;;;;-9.67;93.85;99515.00;5036357;28;20024;-82
2021/12/26 06:36:49;;;;;;;4.43;2.13;;;;;;;-9.66;93.41;99519.34;5038457;28;20104;-84
2021/12/26 06:39:14;;;;;;;4.88;2.08;;;;;;;-9.70;93.96;99517.47;5039367;28;20037;-82
2021/12/26 06:41:39;;;;;;;3.95;2.20;;;;;;;-9.68;94.77;99519.28;5036451;28;20028;-81
2021/12/26 06:44:07;;;;;;;6.15;2.35;;;;;;;-9.63;95.60;99516.88;5036262;28;20033;-84
2021/12/26 06:46:34;;;;;;;6.80;2.08;;;;;;;-9.73;95.16;99515.63;5051021;22;20105;-73
2021/12/26 06:48:59;;;;;;;6.55;2.38;;;;;;;-9.69;95.14;99511.50;5012324;28;20057;-73
2021/12/26 06:51:24;;;;;;;5.15;2.30;;;;;;;-9.69;94.45;99512.34;5013841;28;20495;-73
2021/12/26 06:53:50;;;;;;;4.72;2.20;;;;;;;-9.65;93.38;99508.19;5013555;28;20028;-72
2021/12/26 06:56:15;;;;;;;6.45;2.72;;;;;;;-9.58;93.61;99507.59;5013481;28;20061;-73
2021/12/26 06:58:40;;;;;;;4.15;2.00;;;;;;;-9.59;93.69;99508.44;5013422;28;20025;-73
2021/12/26 07:01:06;;;;;;;5.22;1.92;;;;;;;-9.64;93.96;99508.25;5014128;28;20069;-72
2021/12/26 07:03:31;;;;;;;6.60;2.25;;;;;;;-9.64;94.07;99504.78;5013482;28;20029;-73
2021/12/26 07:05:56;;;;;;;6.85;2.42;;;;;;;-9.63;93.65;99509.13;5013579;28;20026;-73
2021/12/26 07:08:22;;;;;;;4.50;1.90;;;;;;;-9.63;93.44;99514.28;5013545;28;20022;-73
2021/12/26 07:10:47;;;;;;;3.88;1.80;;;;;;;-9.62;92.68;99520.34;5013780;28;20033;-73
2021/12/26 07:13:12;;;;;;;3.67;1.60;;;;;;;-9.61;93.60;99510.06;5028588;28;20053;-73
2021/12/26 07:15:38;;;;;;;4.82;1.88;;;;;;;-9.59;93.78;99507.56;5013342;28;20032;-73
2021/12/26 07:18:03;;;;;;;5.57;2.03;;;;;;;-9.60;92.68;99517.00;5013563;28;20022;-73
2021/12/26 07:20:29;;;;;;;4.38;2.10;;;;;;;-9.59;92.56;99513.63;5013123;28;20032;-73
2021/12/26 07:22:55;;;;;;;3.60;1.80;;;;;;;-9.58;93.46;99510.19;5013572;28;20052;-73
2021/12/26 07:25:20;;;;;;;6.78;2.33;;;;;;;-9.56;93.05;99523.19;5013178;28;20483;-72
2021/12/26 07:27:45;;;;;;;4.70;2.20;;;;;;;-9.59;93.83;99508.44;5013401;28;20441;-72
2021/12/26 07:30:11;;;;;;;4.55;2.13;;;;;;;-9.56;93.56;99505.94;5013185;28;20473;-72
2021/12/26 07:32:37;;;;;;;4.78;2.20;;;;;;;-9.55;93.40;99512.91;5013448;28;20113;-72
2021/12/26 07:35:03;;;;;;;5.70;2.53;;;;;;;-9.51;93.88;99520.78;5013160;28;20026;-72
2021/12/26 07:37:28;;;;;;;7.95;2.42;;;;;;;-9.50;93.81;99514.78;5013144;28;20506;-72
2021/12/26 07:39:54;;;;;;;5.35;2.63;;;;;;;-9.47;94.33;99518.38;5013019;28;20033;-72
2021/12/26 07:42:19;;;;;;;6.95;3.03;;;;;;;-9.45;94.17;99521.00;5013145;28;20467;-72
2021/12/26 07:44:45;;;;;;;4.57;2.50;;;;;;;-9.42;93.32;99528.88;5013133;28;20040;-72
2021/12/26 07:47:10;;;;;;;7.38;2.38;;;;;;;-9.42;93.62;99522.00;5012974;28;20030;-72
2021/12/26 07:49:36;;;;;;;8.23;2.72;;;;;;;-9.44;93.47;99520.19;5013568;28;20046;-72
2021/12/26 07:52:09;;;;;;;5.45;2.53;;;;;;;-9.37;93.47;99524.78;5013272;28;20433;-72
2021/12/26 07:54:34;;;;;;;7.93;2.70;;;;;;;-9.37;94.10;99540.28;5013421;28;20025;-72
2021/12/26 07:57:00;;;;;;;5.57;2.05;;;;;;;-9.35;93.93;99548.97;5028136;28;20479;-72
2021/12/26 07:59:25;;;;;;;5.38;2.70;;;;;;;-9.35;94.26;99541.22;5014961;28;20022;-72
2021/12/26 08:01:51;;;;;;;5.25;2.65;;;;;;;-9.28;94.60;99538.88;5016646;28;20033;-72
2021/12/26 08:04:17;;;;;;;7.53;2.88;;;;;;;-9.29;94.70;99537.09;5016573;28;20490;-72
2021/12/26 08:06:42;;;;;;;6.75;2.15;;;;;;;-9.26;94.08;99532.06;5016595;28;20442;-72
2021/12/26 08:09:08;;;;;;;4.40;2.35;;;;;;;-9.22;94.04;99532.22;5031587;28;20022;-72
2021/12/26 08:11:34;;;;;;;5.50;2.67;;;;;;;-9.19;93.81;99523.72;5016479;28;20116;-72
2021/12/26 08:13:59;;;;;;;7.15;2.88;;;;;;;-9.15;94.28;99530.78;5016412;28;20028;-72
2021/12/26 08:16:26;;;;;;;5.88;2.25;;;;;;;-9.10;94.43;99537.00;5016342;28;20041;-72
2021/12/26 08:18:52;;;;;;;5.43;2.28;;;;;;;-9.05;93.40;99536.28;5014969;28;20022;-72
2021/12/26 08:21:17;;;;;;;9.18;2.72;;;;;;;-8.93;92.63;99536.75;5016246;28;20031;-72
2021/12/26 08:23:42;;;;;;;6.90;2.30;;;;;;;-8.88;93.38;99537.78;5015101;28;20018;-72
2021/12/26 08:26:08;;;;;;;4.78;2.75;;;;;;;-8.80;92.03;99537.19;5016200;28;20045;-72
2021/12/26 08:28:33;;;;;;;5.97;2.75;;;;;;;-8.75;94.06;99530.47;5014751;28;20022;-72
2021/12/26 08:30:59;;;;;;;4.93;2.53;;;;;;;-8.72;92.72;99530.59;5016098;28;20120;-72
2021/12/26 08:33:24;;;;;;;5.40;2.30;;;;;;;-8.67;92.71;99531.63;5016069;28;20064;-72
2021/12/26 08:35:50;;;;;;;4.45;2.40;;;;;;;-8.57;93.59;99529.31;5016249;28;20403;-72
2021/12/26 08:38:20;;;;;;;6.78;2.92;;;;;;;-8.44;93.56;99539.31;5015966;28;20100;-73
2021/12/26 08:40:46;;;;;;;6.38;2.80;;;;;;;-8.37;93.79;99532.63;5014541;28;20026;-72
2021/12/26 08:43:11;;;;;;;5.85;2.45;;;;;;;-8.31;93.31;99540.59;5016109;28;20038;-72
2021/12/26 08:45:37;;;;;;;6.90;3.13;;;;;;;-8.24;93.47;99539.09;5016113;28;20021;-73
2021/12/26 08:48:03;;;;;;;6.30;2.80;;;;;;;-8.19;92.78;99539.25;5015520;28;20483;-72
2021/12/26 08:50:29;;;;;;;4.97;2.65;;;;;;;-8.13;92.46;99541.19;5014352;28;20083;-72
2021/12/26 08:52:54;;;;;;;5.97;2.67;;;;;;;-8.08;92.04;99539.63;5015698;28;20025;-72
2021/12/26 08:55:21;;;;;;;6.97;2.92;;;;;;;-8.07;92.41;99537.09;5015628;28;20022;-72
2021/12/26 08:57:47;;;;;;;5.70;2.50;;;;;;;-8.06;91.11;99527.59;5015580;28;20025;-72
2021/12/26 09:00:14;;;;;;;7.07;2.80;;;;;;;-8.10;90.93;99533.50;5015602;28;20056;-73
2021/12/26 09:02:39;;;;;;;7.90;2.90;;;;;;;-8.07;90.83;99531.03;5031497;28;20028;-73
2021/12/26 09:05:06;;;;;;;7.20;3.33;;;;;;;-8.06;91.05;99535.38;5015482;28;20034;-72
2021/12/26 09:07:31;;;;;;;5.95;2.78;;;;;;;-8.01;90.89;99536.41;5015368;28;20112;-72
2021/12/26 09:09:57;;;;;;;5.65;2.88;;;;;;;-7.94;91.87;99531.44;5015069;28;20117;-72
2021/12/26 09:12:22;;;;;;;5.63;2.78;;;;;;;-7.93;91.94;99531.47;5014900;28;20065;-72
2021/12/26 09:14:48;;;;;;;7.45;3.65;;;;;;;-7.83;92.23;99535.25;5014019;28;20497;-72
2021/12/26 09:17:13;;;;;;;6.18;3.13;;;;;;;-7.77;91.85;99540.66;5015546;28;20026;-72
2021/12/26 09:19:39;;;;;;;8.23;3.22;;;;;;;-7.66;92.79;99533.22;5030391;28;20034;-72
2021/12/26 09:22:07;;;;;;;4.72;2.53;;;;;;;-7.55;91.59;99536.13;5015092;28;20033;-72
2021/12/26 09:24:33;;;;;;;5.47;2.85;;;;;;;-7.47;92.52;99532.91;5030347;28;20478;-72
2021/12/26 09:26:59;;;;;;;7.95;4.07;;;;;;;-7.42;92.17;99537.38;5015025;28;20109;-72
2021/12/26 09:29:24;;;;;;;7.47;3.25;;;;;;;-7.37;91.96;99531.47;5014867;28;20414;-72
2021/12/26 09:31:50;;;;;;;8.25;3.58;;;;;;;-7.33;92.22;99531.63;5015201;28;20534;-73
2021/12/26 09:34:16;;;;;;;9.27;3.15;;;;;;;-7.27;92.62;99525.75;5015134;28;20033;-73
2021/12/26 09:38:06;;;;;;;7.47;3.45;;;;;;;-7.23;92.31;99534.47;5071403;28;20379;-70
2021/12/26 09:40:31;;;;;;;9.38;4.10;;;;;;;-7.23;92.64;99535.38;5070798;28;20402;-70
2021/12/26 09:42:57;;;;;;;7.05;3.25;;;;;;;-7.13;93.54;99543.41;5069331;28;20394;-70
2021/12/26 09:45:22;;;;;;;9.18;3.85;;;;;;;-7.14;92.77;99539.97;5070491;28;20075;-70
2021/12/26 09:47:51;;;;;;;7.45;2.92;;;;;;;-7.10;92.25;99528.84;5069180;28;20040;-70
2021/12/26 09:50:20;;;;;;;6.70;3.72;;;;;;;-7.01;92.54;99532.53;5070366;28;20029;-70
2021/12/26 09:52:47;;;;;;;8.38;4.00;;;;;;;-6.96;92.62;99537.00;5069142;28;20033;-70
2021/12/26 09:55:13;;;;;;;6.45;3.40;;;;;;;-6.94;93.62;99526.69;5069048;28;20478;-70
2021/12/26 09:57:40;;;;;;;7.68;3.53;;;;;;;-6.89;92.36;99521.63;5068845;28;20487;-70
2021/12/26 10:00:30;;;;;;;8.38;3.80;;;;;;;-6.78;93.83;99524.53;5069056;28;20036;-70
2021/12/26 10:03:17;;;;;;;8.00;3.42;;;;;;;-6.65;92.54;99530.97;5069521;28;20036;-70
2021/12/26 10:06:00;;;;;;;7.38;3.67;;;;;;;-6.60;92.04;99516.38;5069174;28;20108;-70
2021/12/26 10:08:27;;;;;;;8.80;4.38;;;;;;;-6.54;91.48;99519.13;5070119;28;20430;-70
2021/12/26 10:11:16;;;;;;;7.63;4.15;;;;;;;-6.45;92.58;99507.22;5070209;28;20047;-70
2021/12/26 10:13:54;;;;;;;7.32;3.80;;;;;;;-6.36;91.40;99517.00;5070071;28;20036;-70
2021/12/26 10:16:23;;;;;;;10.05;4.70;;;;;;;-6.29;92.63;99511.13;5068808;28;20020;-70
2021/12/26 10:18:48;;;;;;;9.48;4.20;;;;;;;-6.18;92.16;99507.06;5070010;28;20462;-71
2021/12/26 10:21:35;;;;;;;9.10;4.47;;;;;;;-6.13;91.10;99498.53;5069858;28;20493;-70
2021/12/26 10:24:06;;;;;;;9.18;4.10;;;;;;;-6.06;92.67;99505.59;5069865;28;20021;-70
2021/12/26 10:26:36;;;;;;;8.55;4.47;;;;;;;-5.96;93.53;99501.50;5069720;28;20070;-70
2021/12/26 10:29:08;;;;;;;8.55;4.55;;;;;;;-5.87;94.04;99490.44;5069661;28;20519;-70
2021/12/26 10:31:35;;;;;;;11.73;5.80;;;;;;;-5.74;95.18;99496.81;5070156;28;20029;-70
2021/12/26 10:34:00;;;;;;;9.68;4.43;;;;;;;-5.72;93.31;99489.94;5069872;28;20100;-70
2021/12/26 10:36:27;;;;;;;7.70;4.38;;;;;;;-5.64;94.50;99490.09;5068095;28;20117;-70
2021/12/26 10:39:12;;;;;;;12.02;5.10;;;;;;;-5.65;91.41;99480.53;5068164;28;20055;-70
2021/12/26 10:42:02;;;;;;;9.35;4.28;;;;;;;-5.50;92.35;99482.63;5068013;28;20032;-70
2021/12/26 10:44:43;;;;;;;11.65;5.03;;;;;;;-5.47;92.68;99479.19;5065135;28;20033;-70
2021/12/26 10:47:16;;;;;;;9.52;4.25;;;;;;;-5.39;91.78;99480.25;5069381;28;20017;-70
2021/12/26 10:49:54;;;;;;;10.03;4.80;;;;;;;-5.34;91.81;99472.53;5055514;28;20367;-70
2021/12/26 10:52:21;;;;;;;9.98;4.88;;;;;;;-5.29;91.60;99479.63;5054968;28;20033;-70
2021/12/26 10:54:55;;;;;;;9.15;4.80;;;;;;;-5.23;92.01;99475.38;5056090;28;20025;-70
2021/12/26 10:57:25;;;;;;;11.27;5.15;;;;;;;-5.20;90.72;99472.81;5054740;28;20474;-70
2021/12/26 11:00:02;;;;;;;9.10;4.28;;;;;;;-5.05;91.56;99460.13;5055869;28;20028;-70
2021/12/26 11:02:30;;;;;;;9.85;4.53;;;;;;;-5.06;90.47;99471.41;5055849;28;20114;-70
2021/12/26 11:05:20;;;;;;;11.73;4.78;;;;;;;-4.95;90.49;99465.53;5055757;28;20474;-70
2021/12/26 11:07:57;;;;;;;10.55;5.43;;;;;;;-4.82;92.19;99464.06;5055180;28;20039;-70
2021/12/26 11:10:26;;;;;;;9.93;5.00;;;;;;;-4.91;89.10;99459.53;5055588;28;20029;-71
2021/12/26 11:12:55;;;;;;;8.25;4.78;;;;;;;-4.79;91.25;99463.25;5054282;28;20024;-71
2021/12/26 11:15:24;;;;;;;8.65;4.90;;;;;;;-4.72;92.24;99470.31;5055610;28;20036;-71
2021/12/26 11:17:54;;;;;;;12.45;5.05;;;;;;;-4.69;91.52;99467.78;5055420;28;20017;-71
2021/12/26 11:20:26;;;;;;;9.93;5.22;;;;;;;-4.57;91.33;99464.53;5055411;28;20037;-72
2021/12/26 11:22:52;;;;;;;10.63;5.60;;;;;;;-4.55;90.17;99446.28;5054193;28;20017;-71
2021/12/26 11:25:18;;;;;;;11.40;5.40;;;;;;;-4.62;90.18;99441.00;5054158;28;20021;-72
2021/12/26 11:27:43;;;;;;;10.98;5.45;;;;;;;-4.47;91.97;99444.72;5055551;28;20020;-72
2021/12/26 11:30:10;;;;;;;9.18;4.80;;;;;;;-4.53;89.83;99439.38;5053948;28;20028;-72
2021/12/26 11:32:35;;;;;;;8.25;4.85;;;;;;;-4.41;91.00;99436.13;5054101;28;20490;-71
2021/12/26 11:35:02;;;;;;;11.02;6.07;;;;;;;-4.51;90.00;99438.56;5054036;28;20028;-72
2021/12/26 11:37:28;;;;;;;12.05;5.00;;;;;;;-4.42;90.49;99432.63;5053822;28;20025;-72
2021/12/26 11:39:54;;;;;;;10.77;5.32;;;;;;;-4.40;90.14;99436.13;5053819;28;20036;-73